Terminal Aerodrome Forecast
Issued by NWS Bismarck, ND

Home | Current Version | Previous Version | Graphics & Text | Print | Product List | Glossary On
Versions: 1 2 3 4 5 6 7 8 9 10 11 12 13 14 15
000
FTUS43 KBIS 021121
TAFISN
TAF
KISN 021121Z 0212/0312 20005KT P6SM SCT110
     FM021400 26006KT P6SM VCSH BKN110
     FM021700 28015G25KT P6SM SCT100
     FM030100 31010KT P6SM SCT100
     FM030600 34009KT P6SM SKC=

USA.gov is the U.S. government's official web portal to all federal, state and local government web resources and services.